O'Neals, California
Current Conditions -  °F | °C
As of 8:53 AM on Thursday 27 Nov 2014 (Local Time) from KFAT Reporting Station
Haze Haze  
Wind Chill: 51°   Ceiling: 20000
Heat Index: 51°   Visibility: 6mi
Dew Point: 44°   Wind: 0mph
Humidity: 77%   Direction: NA
Pressure: 30.21"   Gusts: NA
Location:  37.13°N, 119.7°W
Report Text: KFAT 271653Z 00000KT 6SM HZ SCT150 BKN200 11/07 A3021 RMK AO2 SLP229 T01060067
Loading
Personal Weather Stations






























Interactive Weather Map New forecast layout! Learn more

10-Day Weather Forecast

Advertisements
Track Severe Weather on mobile